sensor_id;sensor_type;location;lat;lon;timestamp;pressure;altitude;pressure_sealevel;temperature;humidity
3150;BME280;32503;47.748;8.960;2023-05-12T00:01:40;96564.00;;;13.48;71.42
3150;BME280;32503;47.748;8.960;2023-05-12T00:04:07;96567.91;;;13.47;71.33
3150;BME280;32503;47.748;8.960;2023-05-12T00:06:36;96562.06;;;13.45;71.21
3150;BME280;32503;47.748;8.960;2023-05-12T00:09:03;96555.81;;;13.37;70.99
3150;BME280;32503;47.748;8.960;2023-05-12T00:11:30;96554.28;;;13.36;71.06
3150;BME280;32503;47.748;8.960;2023-05-12T00:13:57;96551.91;;;13.31;71.14
3150;BME280;32503;47.748;8.960;2023-05-12T00:16:25;96548.75;;;13.25;71.13
3150;BME280;32503;47.748;8.960;2023-05-12T00:18:52;96549.50;;;13.22;71.55
3150;BME280;32503;47.748;8.960;2023-05-12T00:21:20;96556.06;;;13.21;71.58
3150;BME280;32503;47.748;8.960;2023-05-12T00:23:48;96560.75;;;13.21;71.35
3150;BME280;32503;47.748;8.960;2023-05-12T00:26:15;96553.31;;;13.14;71.59
3150;BME280;32503;47.748;8.960;2023-05-12T00:28:42;96554.91;;;13.15;71.61
3150;BME280;32503;47.748;8.960;2023-05-12T00:31:09;96554.53;;;13.17;71.42
3150;BME280;32503;47.748;8.960;2023-05-12T00:33:36;96539.75;;;13.14;71.27
3150;BME280;32503;47.748;8.960;2023-05-12T00:36:04;96549.44;;;13.12;71.37
3150;BME280;32503;47.748;8.960;2023-05-12T00:38:31;96545.53;;;13.09;71.18
3150;BME280;32503;47.748;8.960;2023-05-12T00:41:00;96544.75;;;13.05;71.54
3150;BME280;32503;47.748;8.960;2023-05-12T00:43:28;96549.34;;;12.97;71.54
3150;BME280;32503;47.748;8.960;2023-05-12T00:45:56;96543.09;;;12.93;71.47
3150;BME280;32503;47.748;8.960;2023-05-12T00:48:23;96527.56;;;12.86;71.55
3150;BME280;32503;47.748;8.960;2023-05-12T00:50:50;96539.56;;;12.85;71.53
3150;BME280;32503;47.748;8.960;2023-05-12T00:53:17;96547.75;;;12.93;71.49
3150;BME280;32503;47.748;8.960;2023-05-12T00:55:44;96551.22;;;12.89;71.80
3150;BME280;32503;47.748;8.960;2023-05-12T00:58:13;96547.69;;;12.82;72.12
3150;BME280;32503;47.748;8.960;2023-05-12T01:00:40;96549.97;;;12.76;72.43
3150;BME280;32503;47.748;8.960;2023-05-12T01:03:08;96551.50;;;12.74;72.34
3150;BME280;32503;47.748;8.960;2023-05-12T01:05:41;96542.94;;;12.68;72.92
3150;BME280;32503;47.748;8.960;2023-05-12T01:08:13;96536.66;;;12.57;72.98
3150;BME280;32503;47.748;8.960;2023-05-12T01:10:43;96547.59;;;12.71;72.37
3150;BME280;32503;47.748;8.960;2023-05-12T01:13:10;96543.72;;;12.72;72.11
3150;BME280;32503;47.748;8.960;2023-05-12T01:15:43;96544.91;;;12.71;72.11
3150;BME280;32503;47.748;8.960;2023-05-12T01:18:11;96551.50;;;12.74;72.17
3150;BME280;32503;47.748;8.960;2023-05-12T01:20:40;96542.97;;;12.71;71.69
3150;BME280;32503;47.748;8.960;2023-05-12T01:23:08;96535.94;;;12.67;72.03
3150;BME280;32503;47.748;8.960;2023-05-12T01:25:38;96530.47;;;12.63;71.59
3150;BME280;32503;47.748;8.960;2023-05-12T01:28:07;96532.81;;;12.65;71.41
3150;BME280;32503;47.748;8.960;2023-05-12T01:30:35;96532.41;;;12.59;72.00
3150;BME280;32503;47.748;8.960;2023-05-12T01:33:06;96526.53;;;12.50;71.43
3150;BME280;32503;47.748;8.960;2023-05-12T01:35:33;96530.34;;;12.45;71.37
3150;BME280;32503;47.748;8.960;2023-05-12T01:38:00;96523.72;;;12.39;71.47
3150;BME280;32503;47.748;8.960;2023-05-12T01:40:28;96531.13;;;12.46;71.26
3150;BME280;32503;47.748;8.960;2023-05-12T01:42:55;96525.72;;;12.46;71.02
3150;BME280;32503;47.748;8.960;2023-05-12T01:45:23;96531.91;;;12.46;70.99
3150;BME280;32503;47.748;8.960;2023-05-12T01:47:50;96538.06;;;12.43;70.72
3150;BME280;32503;47.748;8.960;2023-05-12T01:50:17;96538.78;;;12.37;70.96
3150;BME280;32503;47.748;8.960;2023-05-12T01:52:44;96530.25;;;12.35;71.25
3150;BME280;32503;47.748;8.960;2023-05-12T01:55:11;96538.78;;;12.37;71.05
3150;BME280;32503;47.748;8.960;2023-05-12T01:57:38;96538.00;;;12.36;71.08
3150;BME280;32503;47.748;8.960;2023-05-12T02:00:07;96541.91;;;12.39;70.63
3150;BME280;32503;47.748;8.960;2023-05-12T02:02:36;96543.44;;;12.36;70.63
3150;BME280;32503;47.748;8.960;2023-05-12T02:05:03;96545.75;;;12.34;70.73
3150;BME280;32503;47.748;8.960;2023-05-12T02:07:30;96541.06;;;12.31;70.62
3150;BME280;32503;47.748;8.960;2023-05-12T02:09:57;96548.00;;;12.25;70.85
3150;BME280;32503;47.748;8.960;2023-05-12T02:12:26;96549.06;;;12.17;71.44
3150;BME280;32503;47.748;8.960;2023-05-12T02:14:53;96562.19;;;12.14;71.64
3150;BME280;32503;47.748;8.960;2023-05-12T02:17:20;96545.53;;;12.12;71.63
3150;BME280;32503;47.748;8.960;2023-05-12T02:19:51;96551.75;;;12.17;71.45
3150;BME280;32503;47.748;8.960;2023-05-12T02:22:18;96548.34;;;12.23;71.07
3150;BME280;32503;47.748;8.960;2023-05-12T02:24:45;96551.84;;;12.24;71.70
3150;BME280;32503;47.748;8.960;2023-05-12T02:27:12;96543.31;;;12.22;70.90
3150;BME280;32503;47.748;8.960;2023-05-12T02:29:39;96532.03;;;12.16;71.29
3150;BME280;32503;47.748;8.960;2023-05-12T02:32:06;96535.47;;;12.13;71.28
3150;BME280;32503;47.748;8.960;2023-05-12T02:34:33;96537.41;;;12.12;71.65
3150;BME280;32503;47.748;8.960;2023-05-12T02:37:02;96539.44;;;12.23;71.75
3150;BME280;32503;47.748;8.960;2023-05-12T02:39:29;96545.69;;;12.27;71.00
3150;BME280;32503;47.748;8.960;2023-05-12T02:41:56;96538.69;;;12.26;70.90
3150;BME280;32503;47.748;8.960;2023-05-12T02:44:23;96525.84;;;12.19;71.13
3150;BME280;32503;47.748;8.960;2023-05-12T02:46:50;96535.25;;;12.29;71.03
3150;BME280;32503;47.748;8.960;2023-05-12T02:49:17;96531.75;;;12.28;71.38
3150;BME280;32503;47.748;8.960;2023-05-12T02:51:44;96529.84;;;12.32;71.10
3150;BME280;32503;47.748;8.960;2023-05-12T02:54:14;96529.06;;;12.32;71.01
3150;BME280;32503;47.748;8.960;2023-05-12T02:56:41;96528.66;;;12.30;71.05
3150;BME280;32503;47.748;8.960;2023-05-12T02:59:08;96534.81;;;12.23;71.32
3150;BME280;32503;47.748;8.960;2023-05-12T03:01:35;96535.56;;;12.24;71.77
3150;BME280;32503;47.748;8.960;2023-05-12T03:04:02;96529.00;;;12.25;71.88
3150;BME280;32503;47.748;8.960;2023-05-12T03:06:29;96529.03;;;12.28;71.84
3150;BME280;32503;47.748;8.960;2023-05-12T03:08:56;96531.31;;;12.26;71.65
3150;BME280;32503;47.748;8.960;2023-05-12T03:11:25;96523.19;;;12.26;71.76
3150;BME280;32503;47.748;8.960;2023-05-12T03:13:53;96529.44;;;12.30;71.99
3150;BME280;32503;47.748;8.960;2023-05-12T03:16:20;96530.97;;;12.28;72.02
3150;BME280;32503;47.748;8.960;2023-05-12T03:18:47;96528.63;;;12.26;72.09
3150;BME280;32503;47.748;8.960;2023-05-12T03:21:14;96531.31;;;12.26;72.18
3150;BME280;32503;47.748;8.960;2023-05-12T03:23:41;96532.56;;;12.32;72.38
3150;BME280;32503;47.748;8.960;2023-05-12T03:26:08;96528.31;;;12.35;71.94
3150;BME280;32503;47.748;8.960;2023-05-12T03:28:36;96536.06;;;12.37;71.95
3150;BME280;32503;47.748;8.960;2023-05-12T03:31:04;96538.00;;;12.36;71.58
3150;BME280;32503;47.748;8.960;2023-05-12T03:33:31;96534.16;;;12.37;71.98
3150;BME280;32503;47.748;8.960;2023-05-12T03:35:58;96539.16;;;12.35;72.09
3150;BME280;32503;47.748;8.960;2023-05-12T03:38:25;96523.16;;;12.23;71.66
3150;BME280;32503;47.748;8.960;2023-05-12T03:41:02;96531.78;;;12.32;72.02
3150;BME280;32503;47.748;8.960;2023-05-12T03:43:29;96529.47;;;12.34;72.23
3150;BME280;32503;47.748;8.960;2023-05-12T03:45:58;96537.59;;;12.34;72.09
3150;BME280;32503;47.748;8.960;2023-05-12T03:48:25;96538.72;;;12.29;72.94
3150;BME280;32503;47.748;8.960;2023-05-12T03:50:52;96531.00;;;12.31;72.45
3150;BME280;32503;47.748;8.960;2023-05-12T03:53:19;96537.25;;;12.36;72.44
3150;BME280;32503;47.748;8.960;2023-05-12T03:55:46;96531.81;;;12.36;72.10
3150;BME280;32503;47.748;8.960;2023-05-12T03:58:13;96526.41;;;12.36;72.33
3150;BME280;32503;47.748;8.960;2023-05-12T04:00:40;96528.75;;;12.37;72.02
3150;BME280;32503;47.748;8.960;2023-05-12T04:03:09;96531.84;;;12.39;72.74
3150;BME280;32503;47.748;8.960;2023-05-12T04:05:36;96528.78;;;12.41;72.61
3150;BME280;32503;47.748;8.960;2023-05-12T04:08:04;96528.81;;;12.44;72.32
3150;BME280;32503;47.748;8.960;2023-05-12T04:10:31;96524.88;;;12.42;72.33
3150;BME280;32503;47.748;8.960;2023-05-12T04:12:58;96524.84;;;12.38;72.59
3150;BME280;32503;47.748;8.960;2023-05-12T04:15:25;96513.56;;;12.29;72.55
3150;BME280;32503;47.748;8.960;2023-05-12T04:17:52;96523.72;;;12.39;72.41
3150;BME280;32503;47.748;8.960;2023-05-12T04:20:21;96527.66;;;12.49;72.67
3150;BME280;32503;47.748;8.960;2023-05-12T04:22:48;96524.94;;;12.49;72.57
3150;BME280;32503;47.748;8.960;2023-05-12T04:25:16;96532.75;;;12.54;72.36
3150;BME280;32503;47.748;8.960;2023-05-12T04:27:43;96526.53;;;12.54;72.58
3150;BME280;32503;47.748;8.960;2023-05-12T04:30:10;96533.94;;;12.57;72.51
3150;BME280;32503;47.748;8.960;2023-05-12T04:32:37;96532.81;;;12.65;72.23
3150;BME280;32503;47.748;8.960;2023-05-12T04:35:05;96527.38;;;12.61;72.64
3150;BME280;32503;47.748;8.960;2023-05-12T04:37:33;96539.88;;;12.73;71.68
3150;BME280;32503;47.748;8.960;2023-05-12T04:40:00;96538.31;;;12.72;71.97
3150;BME280;32503;47.748;8.960;2023-05-12T04:42:27;96545.63;;;12.68;72.08
3150;BME280;32503;47.748;8.960;2023-05-12T04:44:54;96547.59;;;12.71;71.92
3150;BME280;32503;47.748;8.960;2023-05-12T04:47:21;96549.16;;;12.72;71.77
3150;BME280;32503;47.748;8.960;2023-05-12T04:49:48;96550.72;;;12.73;71.55
3150;BME280;32503;47.748;8.960;2023-05-12T04:52:15;96550.38;;;12.78;71.11
3150;BME280;32503;47.748;8.960;2023-05-12T04:54:44;96550.00;;;12.80;71.53
3150;BME280;32503;47.748;8.960;2023-05-12T04:57:11;96547.69;;;12.82;70.90
3150;BME280;32503;47.748;8.960;2023-05-12T04:59:38;96523.56;;;12.69;70.84
3150;BME280;32503;47.748;8.960;2023-05-12T05:02:07;96557.84;;;12.92;70.95
3150;BME280;32503;47.748;8.960;2023-05-12T05:04:34;96561.31;;;12.89;71.17
3150;BME280;32503;47.748;8.960;2023-05-12T05:07:01;96557.88;;;12.96;71.11
3150;BME280;32503;47.748;8.960;2023-05-12T05:09:28;96560.22;;;13.01;71.18
3150;BME280;32503;47.748;8.960;2023-05-12T05:11:57;96559.47;;;13.04;70.82
3150;BME280;32503;47.748;8.960;2023-05-12T05:14:24;96564.13;;;13.07;70.94
3150;BME280;32503;47.748;8.960;2023-05-12T05:16:51;96564.91;;;13.07;70.88
3150;BME280;32503;47.748;8.960;2023-05-12T05:19:19;96567.28;;;13.16;70.78
3150;BME280;32503;47.748;8.960;2023-05-12T05:21:46;96567.31;;;13.20;70.39
3150;BME280;32503;47.748;8.960;2023-05-12T05:24:13;96568.53;;;13.26;70.62
3150;BME280;32503;47.748;8.960;2023-05-12T05:26:40;96561.59;;;13.32;70.40
3150;BME280;32503;47.748;8.960;2023-05-12T05:29:08;96572.91;;;13.38;70.37
3150;BME280;32503;47.748;8.960;2023-05-12T05:31:35;96562.44;;;13.40;70.44
3150;BME280;32503;47.748;8.960;2023-05-12T05:34:03;96569.06;;;13.50;70.05
3150;BME280;32503;47.748;8.960;2023-05-12T05:36:30;96563.25;;;13.51;69.85
3150;BME280;32503;47.748;8.960;2023-05-12T05:38:58;96576.13;;;13.61;69.82
3150;BME280;32503;47.748;8.960;2023-05-12T05:41:25;96576.13;;;13.65;69.64
3150;BME280;32503;47.748;8.960;2023-05-12T05:43:52;96575.75;;;13.67;69.62
3150;BME280;32503;47.748;8.960;2023-05-12T05:46:21;96566.47;;;13.71;69.19
3150;BME280;32503;47.748;8.960;2023-05-12T05:48:48;96572.31;;;13.77;68.67
3150;BME280;32503;47.748;8.960;2023-05-12T05:51:15;96562.25;;;13.84;68.78
3150;BME280;32503;47.748;8.960;2023-05-12T05:53:42;96567.69;;;13.92;68.66
3150;BME280;32503;47.748;8.960;2023-05-12T05:56:09;96563.44;;;13.94;68.28
3150;BME280;32503;47.748;8.960;2023-05-12T05:58:36;96579.00;;;14.04;68.43
3150;BME280;32503;47.748;8.960;2023-05-12T06:01:03;96573.59;;;14.12;68.04
3150;BME280;32503;47.748;8.960;2023-05-12T06:03:32;96572.41;;;14.13;67.59
3150;BME280;32503;47.748;8.960;2023-05-12T06:05:59;96586.41;;;14.18;67.22
3150;BME280;32503;47.748;8.960;2023-05-12T06:08:26;96581.78;;;14.22;67.00
3150;BME280;32503;47.748;8.960;2023-05-12T06:10:53;96576.34;;;14.26;66.68
3150;BME280;32503;47.748;8.960;2023-05-12T06:13:20;96578.28;;;14.29;66.46
3150;BME280;32503;47.748;8.960;2023-05-12T06:15:47;96579.47;;;14.35;66.21
3150;BME280;32503;47.748;8.960;2023-05-12T06:18:15;96584.16;;;14.42;66.09
3150;BME280;32503;47.748;8.960;2023-05-12T06:20:44;96582.97;;;14.54;65.39
3150;BME280;32503;47.748;8.960;2023-05-12T06:23:11;96586.53;;;14.65;65.24
3150;BME280;32503;47.748;8.960;2023-05-12T06:25:38;96579.53;;;14.82;64.76
3150;BME280;32503;47.748;8.960;2023-05-12T06:28:05;96587.31;;;15.02;64.26
3150;BME280;32503;47.748;8.960;2023-05-12T06:30:32;96588.47;;;15.19;63.76
3150;BME280;32503;47.748;8.960;2023-05-12T06:33:00;96590.00;;;15.34;63.11
3150;BME280;32503;47.748;8.960;2023-05-12T06:35:27;96583.34;;;15.46;62.58
3150;BME280;32503;47.748;8.960;2023-05-12T06:37:55;96589.53;;;15.64;61.55
3150;BME280;32503;47.748;8.960;2023-05-12T06:40:22;96588.38;;;15.76;61.24
3150;BME280;32503;47.748;8.960;2023-05-12T06:42:49;96592.19;;;15.93;61.25
3150;BME280;32503;47.748;8.960;2023-05-12T06:45:16;96596.78;;;16.14;60.19
3150;BME280;32503;47.748;8.960;2023-05-12T06:47:43;96597.41;;;16.40;59.41
3150;BME280;32503;47.748;8.960;2023-05-12T06:50:10;96587.09;;;16.65;58.98
3150;BME280;32503;47.748;8.960;2023-05-12T06:52:37;96588.44;;;16.99;58.26
3150;BME280;32503;47.748;8.960;2023-05-12T06:55:07;96594.84;;;17.27;56.74
3150;BME280;32503;47.748;8.960;2023-05-12T06:57:34;96589.63;;;17.77;55.87
3150;BME280;32503;47.748;8.960;2023-05-12T07:00:01;96591.47;;;18.22;54.01
3150;BME280;32503;47.748;8.960;2023-05-12T07:02:28;96589.31;;;18.64;53.83
3150;BME280;32503;47.748;8.960;2023-05-12T07:04:56;96595.13;;;18.93;53.30
3150;BME280;32503;47.748;8.960;2023-05-12T07:07:23;96592.00;;;19.19;52.27
3150;BME280;32503;47.748;8.960;2023-05-12T07:09:50;96586.22;;;19.57;51.91
3150;BME280;32503;47.748;8.960;2023-05-12T07:12:18;96585.66;;;19.89;51.29
3150;BME280;32503;47.748;8.960;2023-05-12T07:14:45;96586.69;;;19.95;48.74
3150;BME280;32503;47.748;8.960;2023-05-12T07:17:12;96583.25;;;19.91;49.32
3150;BME280;32503;47.748;8.960;2023-05-12T07:19:39;96583.88;;;19.99;49.88
3150;BME280;32503;47.748;8.960;2023-05-12T07:22:08;96580.97;;;20.26;49.95
3150;BME280;32503;47.748;8.960;2023-05-12T07:24:35;96587.34;;;20.56;49.31
3150;BME280;32503;47.748;8.960;2023-05-12T07:27:03;96580.34;;;20.88;47.85
3150;BME280;32503;47.748;8.960;2023-05-12T07:29:32;96577.94;;;21.23;47.21
3150;BME280;32503;47.748;8.960;2023-05-12T07:31:59;96562.28;;;21.36;46.00
3150;BME280;32503;47.748;8.960;2023-05-12T07:34:26;96569.91;;;21.61;45.78
3150;BME280;32503;47.748;8.960;2023-05-12T07:36:53;96567.66;;;21.85;43.82
3150;BME280;32503;47.748;8.960;2023-05-12T07:39:20;96572.34;;;22.14;44.31
3150;BME280;32503;47.748;8.960;2023-05-12T07:41:48;96566.31;;;22.19;44.42
3150;BME280;32503;47.748;8.960;2023-05-12T07:44:15;96570.13;;;21.67;44.58
3150;BME280;32503;47.748;8.960;2023-05-12T07:46:44;96561.88;;;21.67;45.45
3150;BME280;32503;47.748;8.960;2023-05-12T07:49:11;96567.88;;;21.78;44.59
3150;BME280;32503;47.748;8.960;2023-05-12T07:51:38;96554.75;;;22.11;44.95
3150;BME280;32503;47.748;8.960;2023-05-12T07:54:05;96562.94;;;22.41;43.86
3150;BME280;32503;47.748;8.960;2023-05-12T07:56:33;96558.19;;;22.28;43.75
3150;BME280;32503;47.748;8.960;2023-05-12T07:59:00;96565.88;;;22.21;42.65
3150;BME280;32503;47.748;8.960;2023-05-12T08:01:27;96558.63;;;22.27;42.35
3150;BME280;32503;47.748;8.960;2023-05-12T08:03:55;96564.59;;;22.51;42.70
3150;BME280;32503;47.748;8.960;2023-05-12T08:06:22;96562.81;;;22.83;41.95
3150;BME280;32503;47.748;8.960;2023-05-12T08:08:49;96566.22;;;22.74;41.56
3150;BME280;32503;47.748;8.960;2023-05-12T08:11:16;96560.50;;;22.68;42.01
3150;BME280;32503;47.748;8.960;2023-05-12T08:13:43;96566.34;;;22.58;41.42
3150;BME280;32503;47.748;8.960;2023-05-12T08:16:10;96561.06;;;22.50;41.29
3150;BME280;32503;47.748;8.960;2023-05-12T08:18:37;96563.25;;;22.43;41.04
3150;BME280;32503;47.748;8.960;2023-05-12T08:21:06;96554.28;;;22.13;42.00
3150;BME280;32503;47.748;8.960;2023-05-12T08:23:33;96559.88;;;21.96;42.86
3150;BME280;32503;47.748;8.960;2023-05-12T08:28:29;96565.66;;;21.27;42.45
3150;BME280;32503;47.748;8.960;2023-05-12T08:30:56;96565.91;;;21.33;43.15
3150;BME280;32503;47.748;8.960;2023-05-12T08:33:23;96535.78;;;21.42;43.00
3150;BME280;32503;47.748;8.960;2023-05-12T08:35:50;96560.88;;;21.61;40.12
3150;BME280;32503;47.748;8.960;2023-05-12T08:38:19;96564.19;;;21.39;41.12
3150;BME280;32503;47.748;8.960;2023-05-12T08:40:54;96554.41;;;21.21;42.21
3150;BME280;32503;47.748;8.960;2023-05-12T08:43:24;96559.88;;;21.38;42.96
3150;BME280;32503;47.748;8.960;2023-05-12T08:45:52;96550.50;;;21.52;43.27
3150;BME280;32503;47.748;8.960;2023-05-12T08:48:25;96553.69;;;21.92;42.88
3150;BME280;32503;47.748;8.960;2023-05-12T08:50:53;96528.63;;;21.90;41.29
3150;BME280;32503;47.748;8.960;2023-05-12T08:53:23;96554.94;;;22.04;41.57
3150;BME280;32503;47.748;8.960;2023-05-12T08:55:52;96541.41;;;22.23;41.63
3150;BME280;32503;47.748;8.960;2023-05-12T08:58:20;96555.66;;;22.72;40.51
3150;BME280;32503;47.748;8.960;2023-05-12T09:00:49;96548.56;;;22.97;40.01
3150;BME280;32503;47.748;8.960;2023-05-12T09:03:17;96547.41;;;23.33;39.13
3150;BME280;32503;47.748;8.960;2023-05-12T09:05:45;96551.50;;;23.51;38.16
3150;BME280;32503;47.748;8.960;2023-05-12T09:08:13;96552.22;;;23.64;37.82
3150;BME280;32503;47.748;8.960;2023-05-12T09:10:42;96553.44;;;23.63;38.30
3150;BME280;32503;47.748;8.960;2023-05-12T09:13:15;96554.72;;;23.71;38.26
3150;BME280;32503;47.748;8.960;2023-05-12T09:15:45;96550.56;;;23.66;36.69
3150;BME280;32503;47.748;8.960;2023-05-12T09:18:12;96552.53;;;23.66;37.06
3150;BME280;32503;47.748;8.960;2023-05-12T09:20:40;96559.97;;;23.78;36.75
3150;BME280;32503;47.748;8.960;2023-05-12T09:23:17;96542.56;;;23.81;36.91
3150;BME280;32503;47.748;8.960;2023-05-12T09:25:46;96554.38;;;23.82;38.08
3150;BME280;32503;47.748;8.960;2023-05-12T09:28:13;96547.03;;;23.44;38.19
3150;BME280;32503;47.748;8.960;2023-05-12T09:30:41;96557.59;;;23.11;38.42
3150;BME280;32503;47.748;8.960;2023-05-12T09:33:09;96555.84;;;22.91;39.83
3150;BME280;32503;47.748;8.960;2023-05-12T09:35:40;96553.75;;;22.95;42.39
3150;BME280;32503;47.748;8.960;2023-05-12T09:38:08;96552.97;;;22.82;39.70
3150;BME280;32503;47.748;8.960;2023-05-12T09:40:36;96552.34;;;22.78;40.25
3150;BME280;32503;47.748;8.960;2023-05-12T09:43:07;96558.72;;;22.75;39.92
3150;BME280;32503;47.748;8.960;2023-05-12T09:45:34;96542.31;;;22.58;39.77
3150;BME280;32503;47.748;8.960;2023-05-12T09:48:07;96537.59;;;22.46;39.16
3150;BME280;32503;47.748;8.960;2023-05-12T09:50:43;96548.69;;;22.17;39.70
3150;BME280;32503;47.748;8.960;2023-05-12T09:53:10;96545.00;;;21.94;40.76
3150;BME280;32503;47.748;8.960;2023-05-12T09:55:37;96542.69;;;21.92;41.31
3150;BME280;32503;47.748;8.960;2023-05-12T09:58:08;96543.34;;;21.96;41.01
3150;BME280;32503;47.748;8.960;2023-05-12T10:00:36;96542.16;;;21.98;40.72
3150;BME280;32503;47.748;8.960;2023-05-12T10:03:10;96543.03;;;21.94;40.19
3150;BME280;32503;47.748;8.960;2023-05-12T10:05:44;96540.06;;;21.89;39.78
3150;BME280;32503;47.748;8.960;2023-05-12T10:08:16;96530.63;;;21.44;39.76
3150;BME280;32503;47.748;8.960;2023-05-12T10:10:47;96535.00;;;21.12;40.87
3150;BME280;32503;47.748;8.960;2023-05-12T10:13:18;96532.97;;;21.00;41.48
3150;BME280;32503;47.748;8.960;2023-05-12T10:15:46;96530.06;;;21.07;41.68
3150;BME280;32503;47.748;8.960;2023-05-12T10:18:15;96522.81;;;21.13;43.20
3150;BME280;32503;47.748;8.960;2023-05-12T10:20:43;96536.06;;;21.02;41.43
3150;BME280;32503;47.748;8.960;2023-05-12T10:23:12;96530.63;;;21.15;41.59
3150;BME280;32503;47.748;8.960;2023-05-12T10:25:40;96532.25;;;21.29;40.90
3150;BME280;32503;47.748;8.960;2023-05-12T10:28:09;96531.34;;;21.48;41.65
3150;BME280;32503;47.748;8.960;2023-05-12T10:30:39;96527.91;;;21.73;41.03
3150;BME280;32503;47.748;8.960;2023-05-12T10:33:07;96529.59;;;21.96;40.79
3150;BME280;32503;47.748;8.960;2023-05-12T10:35:38;96528.50;;;22.07;39.97
3150;BME280;32503;47.748;8.960;2023-05-12T10:38:06;96528.22;;;21.75;38.34
3150;BME280;32503;47.748;8.960;2023-05-12T10:40:33;96530.06;;;21.07;38.53
3150;BME280;32503;47.748;8.960;2023-05-12T10:43:01;96525.16;;;19.96;41.05
3150;BME280;32503;47.748;8.960;2023-05-12T10:45:35;96517.56;;;19.84;42.00
3150;BME280;32503;47.748;8.960;2023-05-12T10:48:07;96526.19;;;20.02;41.83
3150;BME280;32503;47.748;8.960;2023-05-12T10:50:34;96527.38;;;20.01;42.82
3150;BME280;32503;47.748;8.960;2023-05-12T10:53:01;96511.78;;;19.98;42.75
3150;BME280;32503;47.748;8.960;2023-05-12T10:55:42;96512.97;;;19.37;44.06
3150;BME280;32503;47.748;8.960;2023-05-12T10:58:11;96524.19;;;19.23;45.58
3150;BME280;32503;47.748;8.960;2023-05-12T11:00:50;96519.66;;;19.56;45.50
3150;BME280;32503;47.748;8.960;2023-05-12T11:03:23;96522.88;;;19.51;45.26
3150;BME280;32503;47.748;8.960;2023-05-12T11:05:58;96510.94;;;19.61;44.36
3150;BME280;32503;47.748;8.960;2023-05-12T11:08:26;96525.06;;;20.00;45.01
3150;BME280;32503;47.748;8.960;2023-05-12T11:10:53;96531.75;;;20.52;43.89
3150;BME280;32503;47.748;8.960;2023-05-12T11:13:20;96523.44;;;20.72;43.43
3150;BME280;32503;47.748;8.960;2023-05-12T11:15:49;96521.31;;;20.79;42.78
3150;BME280;32503;47.748;8.960;2023-05-12T11:18:21;96526.69;;;20.50;42.44
3150;BME280;32503;47.748;8.960;2023-05-12T11:20:48;96529.91;;;20.29;43.28
3150;BME280;32503;47.748;8.960;2023-05-12T11:23:26;96526.47;;;19.88;44.53
3150;BME280;32503;47.748;8.960;2023-05-12T11:25:54;96517.97;;;19.82;44.77
3150;BME280;32503;47.748;8.960;2023-05-12T11:28:21;96521.69;;;19.92;45.49
3150;BME280;32503;47.748;8.960;2023-05-12T11:30:50;96522.91;;;19.91;45.56
3150;BME280;32503;47.748;8.960;2023-05-12T11:33:22;96513.50;;;19.28;46.22
3150;BME280;32503;47.748;8.960;2023-05-12T11:35:49;96526.03;;;19.29;47.01
3150;BME280;32503;47.748;8.960;2023-05-12T11:38:17;96519.34;;;19.30;47.21
3150;BME280;32503;47.748;8.960;2023-05-12T11:40:49;96519.66;;;19.56;47.25
3150;BME280;32503;47.748;8.960;2023-05-12T11:43:20;96504.38;;;19.55;46.45
3150;BME280;32503;47.748;8.960;2023-05-12T11:45:47;96508.81;;;18.07;48.41
3150;BME280;32503;47.748;8.960;2023-05-12T11:48:15;96520.25;;;18.53;49.27
3150;BME280;32503;47.748;8.960;2023-05-12T11:50:45;96511.78;;;18.94;48.33
3150;BME280;32503;47.748;8.960;2023-05-12T11:53:16;96502.06;;;19.13;47.92
3150;BME280;32503;47.748;8.960;2023-05-12T11:55:47;96508.13;;;19.45;46.73
3150;BME280;32503;47.748;8.960;2023-05-12T11:58:19;96502.56;;;19.88;46.24
3150;BME280;32503;47.748;8.960;2023-05-12T12:00:47;96513.00;;;19.77;46.47
3150;BME280;32503;47.748;8.960;2023-05-12T12:03:15;96488.94;;;19.65;45.71
3150;BME280;32503;47.748;8.960;2023-05-12T12:05:56;96511.28;;;19.43;45.61
3150;BME280;32503;47.748;8.960;2023-05-12T12:08:23;96512.13;;;19.40;46.07
3150;BME280;32503;47.748;8.960;2023-05-12T12:10:50;96515.47;;;19.08;47.03
3150;BME280;32503;47.748;8.960;2023-05-12T12:13:19;96512.59;;;18.68;46.76
3150;BME280;32503;47.748;8.960;2023-05-12T12:15:47;96504.03;;;18.38;47.22
3150;BME280;32503;47.748;8.960;2023-05-12T12:18:14;96514.31;;;18.58;46.31
3150;BME280;32503;47.748;8.960;2023-05-12T12:20:42;96509.47;;;18.42;45.73
3150;BME280;32503;47.748;8.960;2023-05-12T12:23:10;96518.94;;;18.61;46.56
3150;BME280;32503;47.748;8.960;2023-05-12T12:25:37;96519.00;;;18.81;46.13
3150;BME280;32503;47.748;8.960;2023-05-12T12:28:04;96516.56;;;18.90;45.75
3150;BME280;32503;47.748;8.960;2023-05-12T12:30:31;96523.09;;;18.97;45.86
3150;BME280;32503;47.748;8.960;2023-05-12T12:32:58;96515.09;;;19.06;45.76
3150;BME280;32503;47.748;8.960;2023-05-12T12:35:25;96525.94;;;19.13;45.72
3150;BME280;32503;47.748;8.960;2023-05-12T12:37:53;96523.38;;;19.26;45.60
3150;BME280;32503;47.748;8.960;2023-05-12T12:40:20;96515.91;;;19.26;45.87
3150;BME280;32503;47.748;8.960;2023-05-12T12:42:47;96528.06;;;19.25;45.45
3150;BME280;32503;47.748;8.960;2023-05-12T12:45:14;96524.75;;;19.14;44.72
3150;BME280;32503;47.748;8.960;2023-05-12T12:47:41;96519.34;;;19.30;45.29
3150;BME280;32503;47.748;8.960;2023-05-12T12:50:09;96522.97;;;19.47;45.01
3150;BME280;32503;47.748;8.960;2023-05-12T12:52:37;96517.94;;;19.62;45.09
3150;BME280;32503;47.748;8.960;2023-05-12T12:55:07;96522.25;;;19.83;44.14
3150;BME280;32503;47.748;8.960;2023-05-12T12:57:34;96516.50;;;19.98;42.38
3150;BME280;32503;47.748;8.960;2023-05-12T13:00:01;96509.41;;;20.17;42.76
3150;BME280;32503;47.748;8.960;2023-05-12T13:02:29;96515.19;;;20.55;42.43
3150;BME280;32503;47.748;8.960;2023-05-12T13:04:56;96510.84;;;20.74;41.24
3150;BME280;32503;47.748;8.960;2023-05-12T13:07:23;96493.66;;;20.87;40.78
3150;BME280;32503;47.748;8.960;2023-05-12T13:09:50;96517.50;;;21.06;40.48
3150;BME280;32503;47.748;8.960;2023-05-12T13:12:19;96515.91;;;20.76;40.06
3150;BME280;32503;47.748;8.960;2023-05-12T13:14:46;96513.28;;;21.01;41.11
3150;BME280;32503;47.748;8.960;2023-05-12T13:17:13;96498.84;;;21.14;41.20